createdAt,value
2022-09-15T00:01:11.478Z,15.50
2022-09-15T00:03:38.913Z,15.54
2022-09-15T00:06:05.981Z,15.60
2022-09-15T00:08:32.827Z,15.60
2022-09-15T00:11:10.096Z,15.70
2022-09-15T00:13:38.969Z,15.70
2022-09-15T00:16:06.637Z,15.76
2022-09-15T00:18:34.227Z,15.81
2022-09-15T00:21:05.408Z,15.86
2022-09-15T00:23:32.068Z,15.85
2022-09-15T00:25:58.920Z,15.91
2022-09-15T00:28:25.571Z,15.90
2022-09-15T00:30:54.345Z,15.90
2022-09-15T00:33:22.663Z,15.90
2022-09-15T00:35:51.479Z,15.87
2022-09-15T00:38:18.876Z,15.93
2022-09-15T00:40:48.303Z,15.99
2022-09-15T00:43:16.874Z,16.00
2022-09-15T00:45:43.556Z,16.06
2022-09-15T00:48:15.916Z,16.05
2022-09-15T00:50:46.726Z,16.01
2022-09-15T00:53:14.582Z,16.00
2022-09-15T00:55:45.707Z,15.99
2022-09-15T00:58:17.900Z,15.89
2022-09-15T01:00:51.399Z,15.93
2022-09-15T01:03:18.237Z,15.99
2022-09-15T01:05:51.454Z,16.03
2022-09-15T01:08:27.977Z,16.05
2022-09-15T01:10:54.603Z,16.07
2022-09-15T01:13:21.205Z,16.02
2022-09-15T01:18:59.072Z,15.99
2022-09-15T01:21:48.680Z,15.99
2022-09-15T01:24:33.692Z,16.04
2022-09-15T01:27:41.569Z,16.05
2022-09-15T01:30:13.256Z,16.07
2022-09-15T01:33:01.463Z,16.14
2022-09-15T01:35:42.448Z,16.14
2022-09-15T01:38:22.516Z,16.15
2022-09-15T01:41:15.616Z,16.17
2022-09-15T01:44:07.148Z,16.23
2022-09-15T01:46:39.390Z,16.24
2022-09-15T01:49:11.201Z,16.30
2022-09-15T01:51:39.883Z,16.34
2022-09-15T01:54:07.671Z,16.42
2022-09-15T01:56:37.005Z,16.47
2022-09-15T01:59:03.785Z,16.51
2022-09-15T02:01:49.749Z,16.52
2022-09-15T02:04:51.542Z,16.58
2022-09-15T02:07:20.591Z,16.63
2022-09-15T02:10:01.829Z,16.69
2022-09-15T02:12:57.668Z,16.72
2022-09-15T02:15:36.910Z,16.71
2022-09-15T02:18:08.495Z,16.68
2022-09-15T02:20:52.083Z,16.74
2022-09-15T02:23:28.727Z,16.77
2022-09-15T02:26:05.159Z,16.70
2022-09-15T02:28:35.759Z,16.75
2022-09-15T02:31:05.229Z,16.72
2022-09-15T02:33:37.109Z,16.73
2022-09-15T02:36:04.982Z,16.71
2022-09-15T02:38:37.045Z,16.67
2022-09-15T02:41:03.820Z,16.72
2022-09-15T02:43:31.105Z,16.71
2022-09-15T02:45:57.916Z,16.72
2022-09-15T02:48:25.405Z,16.73
2022-09-15T02:50:52.023Z,16.72
2022-09-15T02:53:18.601Z,16.71
2022-09-15T02:55:45.158Z,16.71
2022-09-15T02:58:11.712Z,16.73
2022-09-15T03:00:39.200Z,16.72
2022-09-15T03:03:05.766Z,16.72
2022-09-15T03:05:32.385Z,16.74
2022-09-15T03:07:58.973Z,16.74
2022-09-15T03:10:26.363Z,16.73
2022-09-15T03:12:54.509Z,16.73
2022-09-15T03:15:23.848Z,16.72
2022-09-15T03:17:51.111Z,16.69
2022-09-15T03:20:23.117Z,16.72
2022-09-15T03:22:50.136Z,16.68
2022-09-15T03:25:17.593Z,16.73
2022-09-15T03:27:44.400Z,16.73
2022-09-15T03:30:12.307Z,16.73
2022-09-15T03:32:38.881Z,16.73
2022-09-15T03:35:06.868Z,16.74
2022-09-15T03:37:34.002Z,16.75
2022-09-15T03:40:00.634Z,16.74
2022-09-15T03:42:27.235Z,16.75
2022-09-15T03:44:53.851Z,16.76
2022-09-15T03:47:20.437Z,16.79
2022-09-15T03:49:46.966Z,16.81
2022-09-15T03:52:13.893Z,16.82
2022-09-15T03:54:40.733Z,16.83
2022-09-15T03:57:07.287Z,16.82
2022-09-15T03:59:34.007Z,16.80
2022-09-15T04:02:00.638Z,16.77
2022-09-15T04:04:27.504Z,16.79
2022-09-15T04:06:54.059Z,16.77
2022-09-15T04:09:21.565Z,16.76
2022-09-15T04:11:48.178Z,16.71
2022-09-15T04:14:14.868Z,16.70
2022-09-15T04:16:41.538Z,16.70
2022-09-15T04:19:08.256Z,16.70
2022-09-15T04:21:34.811Z,16.69
2022-09-15T04:24:01.595Z,16.69
2022-09-15T04:26:33.082Z,16.69
2022-09-15T04:29:04.143Z,16.65
2022-09-15T04:31:32.212Z,16.64
2022-09-15T04:33:59.386Z,16.62
2022-09-15T04:36:28.370Z,16.64
2022-09-15T04:38:55.960Z,16.63
2022-09-15T04:41:23.187Z,16.61
2022-09-15T04:43:50.347Z,16.60
2022-09-15T04:46:18.472Z,16.64
2022-09-15T04:48:46.326Z,16.68
2022-09-15T04:51:19.294Z,16.72
2022-09-15T04:53:46.426Z,16.75
2022-09-15T04:56:18.607Z,16.75
2022-09-15T04:59:02.434Z,16.81
2022-09-15T05:01:32.499Z,16.81
2022-09-15T05:04:01.912Z,16.82
2022-09-15T05:06:28.570Z,16.87
2022-09-15T05:08:57.343Z,16.92
2022-09-15T05:11:25.563Z,16.89
2022-09-15T05:13:52.878Z,16.95
2022-09-15T05:16:22.274Z,17.00
2022-09-15T05:18:50.496Z,17.07
2022-09-15T05:21:19.198Z,17.11
2022-09-15T05:23:46.495Z,17.10
2022-09-15T05:26:15.851Z,17.08
2022-09-15T05:28:42.673Z,17.09
2022-09-15T05:31:11.438Z,17.12
2022-09-15T05:33:38.544Z,17.16
2022-09-15T05:36:07.316Z,17.16
2022-09-15T05:38:34.344Z,17.14
2022-09-15T05:41:10.331Z,17.14
2022-09-15T05:43:38.501Z,17.20
2022-09-15T05:46:06.845Z,17.26
2022-09-15T05:48:34.346Z,17.24
2022-09-15T05:51:01.364Z,17.28
2022-09-15T05:53:28.646Z,17.33
2022-09-15T05:55:56.647Z,17.33
2022-09-15T05:58:23.453Z,17.34
2022-09-15T06:00:50.119Z,17.39
2022-09-15T06:03:17.131Z,17.42
2022-09-15T06:05:43.890Z,17.45
2022-09-15T06:08:11.006Z,17.52
2022-09-15T06:10:37.544Z,17.52
2022-09-15T06:13:04.185Z,17.58
2022-09-15T06:15:31.568Z,17.61
2022-09-15T06:17:58.228Z,17.63
2022-09-15T06:20:25.578Z,17.61
2022-09-15T06:22:54.007Z,17.73
2022-09-15T06:25:30.655Z,17.79
2022-09-15T06:27:57.228Z,17.87
2022-09-15T06:30:23.760Z,17.93
2022-09-15T06:32:50.402Z,18.01
2022-09-15T06:35:17.355Z,18.04
2022-09-15T06:37:43.892Z,18.13
2022-09-15T06:40:10.971Z,18.30
2022-09-15T06:42:37.598Z,18.33
2022-09-15T06:45:04.535Z,18.41
2022-09-15T06:47:34.036Z,18.57
2022-09-15T06:50:01.263Z,18.68
2022-09-15T06:52:28.266Z,18.75
2022-09-15T06:54:54.960Z,18.82
2022-09-15T06:57:21.581Z,18.91
2022-09-15T06:59:48.126Z,19.03
2022-09-15T07:02:14.783Z,19.11
2022-09-15T07:04:41.412Z,19.14
2022-09-15T07:07:08.114Z,19.16
2022-09-15T07:09:34.652Z,19.23
2022-09-15T07:12:01.488Z,19.33
2022-09-15T07:14:29.931Z,19.40
2022-09-15T07:16:56.555Z,19.49
2022-09-15T07:19:23.396Z,19.46
2022-09-15T07:21:50.417Z,19.47
2022-09-15T07:24:17.015Z,19.52
2022-09-15T07:26:43.619Z,19.50
2022-09-15T07:29:10.174Z,19.59
2022-09-15T07:31:38.850Z,19.74
2022-09-15T07:34:07.018Z,19.78
2022-09-15T07:36:33.971Z,19.76
2022-09-15T07:39:00.525Z,19.83
2022-09-15T07:41:29.347Z,19.88
2022-09-15T07:43:58.343Z,19.99
2022-09-15T07:46:26.578Z,19.98
2022-09-15T07:48:57.542Z,19.99
2022-09-15T07:51:25.114Z,19.92
2022-09-15T07:53:52.926Z,19.94
2022-09-15T07:56:20.567Z,19.97
2022-09-15T07:58:48.201Z,20.00
2022-09-15T08:01:15.943Z,19.99
2022-09-15T08:03:46.301Z,19.96
2022-09-15T08:06:13.725Z,19.97
2022-09-15T08:08:41.052Z,20.00
2022-09-15T08:11:09.788Z,20.03
2022-09-15T08:13:37.072Z,20.11
2022-09-15T08:16:08.249Z,20.09
2022-09-15T08:18:35.617Z,20.06
2022-09-15T08:21:13.699Z,20.04
2022-09-15T08:23:41.118Z,20.02
2022-09-15T08:26:14.393Z,19.95
2022-09-15T08:28:42.313Z,19.86
2022-09-15T08:31:11.508Z,19.83
2022-09-15T08:33:43.137Z,19.81
2022-09-15T08:36:11.546Z,19.83
2022-09-15T08:38:44.141Z,20.02
2022-09-15T08:41:27.796Z,20.15
2022-09-15T08:44:22.474Z,20.23
2022-09-15T08:46:58.029Z,20.26
2022-09-15T08:49:51.117Z,20.23
2022-09-15T08:52:26.906Z,20.19
2022-09-15T08:54:58.125Z,20.08
2022-09-15T08:57:26.133Z,20.19
2022-09-15T08:59:57.185Z,20.25
2022-09-15T09:02:49.932Z,20.24
2022-09-15T09:05:39.779Z,20.35
2022-09-15T09:08:18.557Z,20.50
2022-09-15T09:11:02.193Z,20.51
2022-09-15T09:13:44.495Z,20.52
2022-09-15T09:16:39.926Z,20.40
2022-09-15T09:19:38.165Z,20.40
2022-09-15T09:22:23.189Z,20.50
2022-09-15T09:24:56.661Z,20.49
2022-09-15T09:27:29.986Z,20.43
2022-09-15T09:30:14.265Z,20.37
2022-09-15T09:33:10.714Z,20.33
2022-09-15T09:35:43.471Z,20.23
2022-09-15T09:38:11.130Z,20.03
2022-09-15T09:40:41.488Z,19.91
2022-09-15T09:43:08.936Z,19.77
2022-09-15T09:45:35.641Z,19.78
2022-09-15T09:48:10.066Z,19.75
2022-09-15T09:50:39.610Z,19.71
2022-09-15T09:53:28.586Z,19.55
2022-09-15T09:56:14.613Z,19.41
2022-09-15T09:58:41.287Z,19.28
2022-09-15T10:01:14.402Z,19.22
2022-09-15T10:03:43.294Z,19.37
2022-09-15T10:06:15.241Z,19.55
2022-09-15T10:09:05.790Z,19.78
2022-09-15T10:11:52.819Z,19.83
2022-09-15T10:14:41.362Z,19.95
2022-09-15T10:17:20.262Z,19.94
2022-09-15T10:19:54.206Z,19.77
2022-09-15T10:22:35.675Z,19.74
2022-09-15T10:25:35.692Z,19.68
2022-09-15T10:28:14.799Z,19.70
2022-09-15T10:30:57.751Z,19.80
2022-09-15T10:33:30.745Z,19.75
2022-09-15T10:36:03.712Z,19.92
2022-09-15T10:38:38.954Z,19.90
2022-09-15T10:41:28.508Z,19.90
2022-09-15T10:44:04.477Z,20.24
2022-09-15T10:46:44.136Z,20.50
2022-09-15T10:49:29.539Z,20.87
2022-09-15T10:52:02.164Z,21.18
2022-09-15T10:54:47.958Z,21.32
2022-09-15T10:57:53.446Z,21.33
2022-09-15T11:00:25.807Z,21.38
2022-09-15T11:03:10.965Z,21.52
2022-09-15T11:05:58.631Z,21.89
2022-09-15T11:08:34.128Z,22.00
2022-09-15T11:11:34.412Z,21.87
2022-09-15T11:14:25.055Z,21.66
2022-09-15T11:17:19.450Z,21.52
2022-09-15T11:20:10.411Z,21.30
2022-09-15T11:22:56.902Z,21.16
2022-09-15T11:25:29.216Z,21.10
2022-09-15T11:28:02.460Z,21.04
2022-09-15T11:30:39.394Z,20.99
2022-09-15T11:33:33.101Z,20.97
2022-09-15T11:36:18.115Z,20.93
2022-09-15T11:38:59.697Z,20.98
2022-09-15T11:41:31.183Z,21.20
2022-09-15T11:44:33.181Z,21.43
2022-09-15T11:47:21.743Z,21.52
2022-09-15T11:50:02.113Z,21.76
2022-09-15T11:53:09.714Z,21.87
2022-09-15T11:55:45.311Z,21.79
2022-09-15T11:58:33.730Z,21.74
2022-09-15T12:01:15.695Z,21.72
2022-09-15T12:03:50.659Z,21.76
2022-09-15T12:06:44.791Z,21.89
2022-09-15T12:09:15.905Z,22.12
2022-09-15T12:11:48.590Z,22.25
2022-09-15T12:14:38.655Z,22.34
2022-09-15T12:17:07.997Z,22.45
2022-09-15T12:19:40.956Z,22.50
2022-09-15T12:22:25.787Z,22.52
2022-09-15T12:25:02.402Z,22.59
2022-09-15T12:27:29.677Z,22.57
2022-09-15T12:30:00.027Z,22.54
2022-09-15T12:32:29.045Z,22.54
2022-09-15T12:35:10.109Z,22.46
2022-09-15T12:37:53.129Z,22.33
2022-09-15T12:40:40.437Z,22.23
2022-09-15T12:43:13.400Z,22.07
2022-09-15T12:45:43.033Z,22.04
2022-09-15T12:48:15.813Z,21.99
2022-09-15T12:50:44.481Z,21.78
2022-09-15T12:53:26.715Z,21.77
2022-09-15T12:55:56.244Z,21.78
2022-09-15T12:58:30.440Z,21.61
2022-09-15T13:01:22.366Z,21.53
2022-09-15T13:03:49.454Z,21.39
2022-09-15T13:06:34.248Z,21.44
2022-09-15T13:09:04.259Z,21.35
2022-09-15T13:11:34.744Z,21.45
2022-09-15T13:14:04.604Z,21.47
2022-09-15T13:16:34.617Z,21.54
2022-09-15T13:19:11.999Z,21.53
2022-09-15T13:21:43.825Z,21.36
2022-09-15T13:24:21.495Z,21.26
2022-09-15T13:26:54.648Z,21.17
2022-09-15T13:29:23.103Z,21.09
2022-09-15T13:32:07.859Z,21.16
2022-09-15T13:35:04.906Z,21.15
2022-09-15T13:40:47.974Z,21.38
2022-09-15T13:43:54.680Z,21.39
2022-09-15T13:46:59.138Z,21.38
2022-09-15T13:49:43.675Z,21.42
2022-09-15T13:52:32.243Z,21.44
2022-09-15T13:55:20.920Z,21.35
2022-09-15T14:00:56.517Z,21.08
2022-09-15T14:03:56.710Z,21.00
2022-09-15T14:06:27.425Z,21.03
2022-09-15T14:08:57.897Z,20.87
2022-09-15T14:11:32.662Z,20.70
2022-09-15T14:14:00.924Z,20.65
2022-09-15T14:16:27.955Z,20.54
2022-09-15T14:18:57.752Z,20.52
2022-09-15T14:21:30.307Z,20.44
2022-09-15T14:24:02.590Z,20.45
2022-09-15T14:26:30.652Z,20.42
2022-09-15T14:29:00.985Z,20.44
2022-09-15T14:31:39.179Z,20.39
2022-09-15T14:34:08.628Z,20.31
2022-09-15T14:36:35.370Z,20.28
2022-09-15T14:39:16.963Z,20.33
2022-09-15T14:41:44.280Z,20.43
2022-09-15T14:47:28.372Z,20.50
2022-09-15T14:50:18.476Z,20.58
2022-09-15T14:53:05.372Z,20.46
2022-09-15T14:55:54.708Z,20.45
2022-09-15T14:58:23.948Z,20.46
2022-09-15T15:01:05.329Z,20.45
2022-09-15T15:03:35.207Z,20.31
2022-09-15T15:06:30.778Z,20.30
2022-09-15T15:09:21.430Z,20.21
2022-09-15T15:11:55.174Z,20.11
2022-09-15T15:17:08.271Z,19.81
2022-09-15T15:19:38.690Z,19.64
2022-09-15T15:22:08.467Z,19.29
2022-09-15T15:24:41.003Z,19.33
2022-09-15T15:27:39.734Z,19.22
2022-09-15T15:30:36.979Z,19.06
2022-09-15T15:33:32.119Z,18.99
2022-09-15T15:36:21.799Z,18.99
2022-09-15T15:38:53.642Z,19.00
2022-09-15T15:41:35.545Z,18.93
2022-09-15T15:44:15.604Z,18.91
2022-09-15T15:46:51.382Z,18.80
2022-09-15T15:49:19.244Z,18.72
2022-09-15T15:51:45.869Z,18.55
2022-09-15T15:54:12.838Z,18.50
2022-09-15T15:56:39.429Z,18.32
2022-09-15T15:59:06.421Z,18.32
2022-09-15T16:01:33.606Z,18.24
2022-09-15T16:04:00.481Z,18.28
2022-09-15T16:06:27.162Z,18.20
2022-09-15T16:08:55.647Z,18.09
2022-09-15T16:11:22.143Z,18.10
2022-09-15T16:13:48.687Z,18.12
2022-09-15T16:16:17.674Z,18.08
2022-09-15T16:18:44.470Z,18.08
2022-09-15T16:21:37.006Z,18.04
2022-09-15T16:24:04.869Z,17.98
2022-09-15T16:26:31.486Z,17.98
2022-09-15T16:28:58.515Z,17.90
2022-09-15T16:31:25.106Z,17.92
2022-09-15T16:33:51.678Z,17.85
2022-09-15T16:36:18.630Z,17.85
2022-09-15T16:38:45.407Z,17.83
2022-09-15T16:41:17.890Z,17.78
2022-09-15T16:43:45.525Z,17.79
2022-09-15T16:46:13.665Z,17.67
2022-09-15T16:48:42.883Z,17.64
2022-09-15T16:51:31.590Z,17.60
2022-09-15T16:53:58.754Z,17.52
2022-09-15T16:56:25.891Z,17.42
2022-09-15T16:58:58.788Z,17.40
2022-09-15T17:01:26.524Z,17.35
2022-09-15T17:03:53.094Z,17.22
2022-09-15T17:06:21.019Z,17.21
2022-09-15T17:08:47.619Z,17.18
2022-09-15T17:11:17.047Z,17.12
2022-09-15T17:13:44.395Z,17.06
2022-09-15T17:16:13.475Z,16.97
2022-09-15T17:18:40.070Z,16.92
2022-09-15T17:21:07.381Z,16.91
2022-09-15T17:23:39.501Z,16.86
2022-09-15T17:26:10.959Z,16.82
2022-09-15T17:28:38.338Z,16.76
2022-09-15T17:31:17.104Z,16.69
2022-09-15T17:33:44.424Z,16.59
2022-09-15T17:36:11.919Z,16.46
2022-09-15T17:38:41.126Z,16.27
2022-09-15T17:41:14.747Z,16.34
2022-09-15T17:43:41.371Z,16.38
2022-09-15T17:46:08.970Z,16.37
2022-09-15T17:48:37.249Z,16.39
2022-09-15T17:51:03.911Z,16.35
2022-09-15T17:53:30.992Z,16.35
2022-09-15T17:55:57.574Z,16.37
2022-09-15T17:58:26.763Z,16.36
2022-09-15T18:00:54.155Z,16.39
2022-09-15T18:03:36.630Z,16.39
2022-09-15T18:06:06.986Z,16.26
2022-09-15T18:08:35.887Z,16.22
2022-09-15T18:11:05.076Z,16.23
2022-09-15T18:13:31.715Z,16.22
2022-09-15T18:16:04.042Z,16.24
2022-09-15T18:18:30.634Z,16.24
2022-09-15T18:20:58.487Z,16.18
2022-09-15T18:23:29.422Z,16.20
2022-09-15T18:25:56.105Z,16.21
2022-09-15T18:28:22.689Z,16.21
2022-09-15T18:30:50.580Z,16.17
2022-09-15T18:33:19.432Z,16.22
2022-09-15T18:35:46.833Z,16.23
2022-09-15T18:38:13.738Z,16.23
2022-09-15T18:40:49.009Z,16.23
2022-09-15T18:43:16.703Z,16.28
2022-09-15T18:45:43.293Z,16.33
2022-09-15T18:48:12.777Z,16.38
2022-09-15T18:50:40.662Z,16.35
2022-09-15T18:53:07.782Z,16.29
2022-09-15T18:55:34.376Z,16.17
2022-09-15T18:58:01.427Z,16.13
2022-09-15T19:00:28.950Z,16.08
2022-09-15T19:02:58.405Z,16.02
2022-09-15T19:05:26.795Z,15.99
2022-09-15T19:07:53.797Z,15.93
2022-09-15T19:10:20.526Z,15.86
2022-09-15T19:12:47.192Z,15.84
2022-09-15T19:15:14.778Z,15.80
2022-09-15T19:17:42.824Z,15.67
2022-09-15T19:20:11.858Z,15.67
2022-09-15T19:22:38.444Z,15.65
2022-09-15T19:25:06.556Z,15.54
2022-09-15T19:27:33.726Z,15.54
2022-09-15T19:30:00.629Z,15.53
2022-09-15T19:32:27.571Z,15.52
2022-09-15T19:34:54.136Z,15.45
2022-09-15T19:37:22.076Z,15.43
2022-09-15T19:39:51.546Z,15.36
2022-09-15T19:42:18.157Z,15.34
2022-09-15T19:44:44.801Z,15.28
2022-09-15T19:47:11.601Z,15.26
2022-09-15T19:49:38.574Z,15.22
2022-09-15T19:52:06.441Z,15.14
2022-09-15T19:54:34.541Z,15.03
2022-09-15T19:57:01.511Z,14.93
2022-09-15T19:59:31.231Z,14.88
2022-09-15T20:01:59.812Z,14.89
2022-09-15T20:07:12.538Z,14.86
2022-09-15T20:09:39.434Z,14.86
2022-09-15T20:12:06.175Z,14.89
2022-09-15T20:14:32.752Z,14.96
2022-09-15T20:17:01.208Z,15.00
2022-09-15T20:19:28.635Z,15.04
2022-09-15T20:21:55.212Z,15.03
2022-09-15T20:24:22.890Z,15.08
2022-09-15T20:26:49.742Z,15.10
2022-09-15T20:29:16.380Z,15.07
2022-09-15T20:31:42.896Z,15.11
2022-09-15T20:34:09.427Z,15.15
2022-09-15T20:36:38.900Z,15.12
2022-09-15T20:39:10.452Z,15.04
2022-09-15T20:41:37.151Z,15.01
2022-09-15T20:44:05.339Z,15.03
2022-09-15T20:46:31.930Z,15.01
2022-09-15T20:48:58.485Z,15.01
2022-09-15T20:51:28.013Z,15.04
2022-09-15T20:53:56.153Z,15.04
2022-09-15T20:56:25.626Z,15.05
2022-09-15T20:58:53.689Z,15.04
2022-09-15T21:01:22.896Z,15.01
2022-09-15T21:03:49.931Z,15.03
2022-09-15T21:06:22.650Z,15.02
2022-09-15T21:08:50.072Z,14.96
2022-09-15T21:11:19.378Z,14.98
2022-09-15T21:13:47.232Z,15.02
2022-09-15T21:16:16.247Z,15.07
2022-09-15T21:18:44.474Z,15.06
2022-09-15T21:21:14.689Z,15.08
2022-09-15T21:23:46.756Z,15.10
2022-09-15T21:26:16.240Z,15.09
2022-09-15T21:28:45.739Z,15.14
2022-09-15T21:31:15.198Z,15.11
2022-09-15T21:33:43.148Z,15.17
2022-09-15T21:36:12.911Z,15.23
2022-09-15T21:38:41.704Z,15.25
2022-09-15T21:41:13.908Z,15.20
2022-09-15T21:43:42.296Z,15.23
2022-09-15T21:46:14.681Z,15.17
2022-09-15T21:48:41.424Z,15.16
2022-09-15T21:51:10.494Z,15.15
2022-09-15T21:53:37.937Z,15.20
2022-09-15T21:56:06.538Z,15.25
2022-09-15T21:58:37.926Z,15.23
2022-09-15T22:01:19.850Z,15.19
2022-09-15T22:03:52.287Z,15.21
2022-09-15T22:06:21.514Z,15.17
2022-09-15T22:08:48.441Z,15.14
2022-09-15T22:11:15.095Z,15.12
2022-09-15T22:13:43.776Z,15.18
2022-09-15T22:16:19.297Z,15.17
2022-09-15T22:18:46.334Z,15.21
2022-09-15T22:21:15.616Z,15.18
2022-09-15T22:23:43.280Z,15.18
2022-09-15T22:26:12.904Z,15.12
2022-09-15T22:28:39.750Z,15.10
2022-09-15T22:31:09.221Z,15.09
2022-09-15T22:33:35.937Z,15.15
2022-09-15T22:36:03.675Z,15.16
2022-09-15T22:38:30.452Z,15.21
2022-09-15T22:41:03.414Z,15.20
2022-09-15T22:43:29.949Z,15.14
2022-09-15T22:45:56.566Z,15.20
2022-09-15T22:48:23.137Z,15.21
2022-09-15T22:50:49.665Z,15.20
2022-09-15T22:53:16.281Z,15.20
2022-09-15T22:55:42.914Z,15.19
2022-09-15T22:58:09.513Z,15.10
2022-09-15T23:00:39.247Z,15.07
2022-09-15T23:03:06.663Z,15.00
2022-09-15T23:05:34.225Z,15.01
2022-09-15T23:08:00.869Z,14.89
2022-09-15T23:10:28.220Z,14.75
2022-09-15T23:12:54.818Z,14.79
2022-09-15T23:15:21.457Z,14.79
2022-09-15T23:17:48.082Z,14.77
2022-09-15T23:20:14.779Z,14.77
2022-09-15T23:22:41.297Z,14.68
2022-09-15T23:25:08.330Z,14.73
2022-09-15T23:27:34.945Z,14.74
2022-09-15T23:30:01.547Z,14.70
2022-09-15T23:32:28.156Z,14.71
2022-09-15T23:34:54.830Z,14.64
2022-09-15T23:37:21.336Z,14.53
2022-09-15T23:39:47.924Z,14.54
2022-09-15T23:42:18.621Z,14.46
2022-09-15T23:44:45.491Z,14.47
2022-09-15T23:47:12.065Z,14.48
2022-09-15T23:49:38.598Z,14.48
2022-09-15T23:52:05.124Z,14.50
2022-09-15T23:54:31.709Z,14.52
2022-09-15T23:56:58.234Z,14.37
2022-09-15T23:59:25.080Z,14.21
